createdAt,value
2018-05-27T00:01:58.062Z,7.60
2018-05-27T00:04:26.443Z,7.17
2018-05-27T00:06:54.466Z,7.43
2018-05-27T00:09:22.785Z,6.70
2018-05-27T00:11:51.451Z,6.97
2018-05-27T00:14:19.337Z,7.50
2018-05-27T00:16:47.450Z,6.83
2018-05-27T00:19:15.605Z,7.53
2018-05-27T00:21:43.552Z,6.93
2018-05-27T00:24:11.624Z,7.13
2018-05-27T00:26:39.899Z,7.00
2018-05-27T00:29:07.702Z,7.00
2018-05-27T00:31:35.942Z,7.30
2018-05-27T00:34:04.027Z,7.63
2018-05-27T00:36:31.843Z,6.40
2018-05-27T00:38:59.934Z,6.77
2018-05-27T00:41:28.124Z,5.93
2018-05-27T00:43:55.987Z,6.43
2018-05-27T00:46:24.165Z,6.10
2018-05-27T00:48:52.507Z,6.17
2018-05-27T00:51:20.333Z,6.23
2018-05-27T00:54:01.174Z,6.20
2018-05-27T00:56:29.050Z,7.00
2018-05-27T00:58:56.853Z,7.37
2018-05-27T01:01:25.776Z,7.50
2018-05-27T01:03:53.666Z,6.70
2018-05-27T01:06:21.540Z,7.40
2018-05-27T01:08:49.947Z,6.00
2018-05-27T01:11:17.777Z,6.80
2018-05-27T01:13:45.610Z,6.83
2018-05-27T01:16:14.121Z,6.93
2018-05-27T01:18:41.989Z,6.37
2018-05-27T01:21:09.858Z,6.63
2018-05-27T01:23:38.202Z,6.60
2018-05-27T01:26:06.072Z,6.70
2018-05-27T01:28:33.781Z,7.30
2018-05-27T01:31:02.368Z,7.10
2018-05-27T01:33:30.212Z,6.00
2018-05-27T01:35:58.187Z,6.70
2018-05-27T01:38:26.787Z,6.50
2018-05-27T01:40:54.667Z,6.10
2018-05-27T01:43:22.496Z,6.87
2018-05-27T01:45:50.979Z,6.60
2018-05-27T01:48:18.817Z,6.47
2018-05-27T01:50:46.709Z,6.90
2018-05-27T01:53:15.521Z,6.90
2018-05-27T01:55:43.368Z,6.57
2018-05-27T01:58:11.232Z,6.87
2018-05-27T02:00:39.759Z,7.20
2018-05-27T02:03:07.581Z,6.47
2018-05-27T02:05:35.449Z,6.57
2018-05-27T02:08:04.335Z,7.30
2018-05-27T02:10:32.203Z,6.90
2018-05-27T02:13:00.260Z,6.40
2018-05-27T02:15:28.808Z,7.00
2018-05-27T02:17:56.823Z,6.97
2018-05-27T02:20:24.689Z,6.57
2018-05-27T02:22:53.107Z,7.10
2018-05-27T02:25:20.944Z,6.53
2018-05-27T02:27:48.819Z,6.50
2018-05-27T02:30:17.416Z,6.70
2018-05-27T02:32:45.254Z,6.37
2018-05-27T02:35:13.120Z,6.77
2018-05-27T02:37:41.806Z,6.80
2018-05-27T02:40:09.667Z,6.90
2018-05-27T02:42:37.535Z,6.37
2018-05-27T02:45:06.347Z,6.20
2018-05-27T02:47:34.297Z,6.43
2018-05-27T02:50:02.055Z,6.17
2018-05-27T02:52:30.982Z,6.20
2018-05-27T02:54:58.819Z,6.50
2018-05-27T02:57:26.634Z,6.43
2018-05-27T02:59:54.837Z,6.60
2018-05-27T03:02:22.724Z,6.80
2018-05-27T03:04:50.559Z,6.73
2018-05-27T03:07:19.172Z,6.60
2018-05-27T03:09:47.043Z,6.70
2018-05-27T03:12:15.006Z,6.63
2018-05-27T03:14:43.693Z,7.20
2018-05-27T03:17:11.539Z,6.57
2018-05-27T03:19:39.331Z,6.83
2018-05-27T03:22:07.729Z,7.20
2018-05-27T03:24:35.869Z,6.77
2018-05-27T03:27:03.706Z,6.63
2018-05-27T03:29:32.123Z,6.70
2018-05-27T03:31:59.963Z,6.80
2018-05-27T03:34:27.851Z,6.83
2018-05-27T03:36:56.438Z,7.40
2018-05-27T03:39:24.305Z,7.23
2018-05-27T03:41:52.167Z,6.87
2018-05-27T03:44:20.496Z,6.83
2018-05-27T03:46:48.416Z,6.63
2018-05-27T03:49:16.252Z,7.23
2018-05-27T03:51:44.990Z,6.87
2018-05-27T03:54:13.137Z,6.60
2018-05-27T03:56:40.931Z,6.93
2018-05-27T03:59:09.177Z,6.70
2018-05-27T04:01:37.454Z,6.33
2018-05-27T04:04:18.233Z,6.93
2018-05-27T04:06:57.689Z,7.20
2018-05-27T04:09:27.504Z,7.37
2018-05-27T04:11:55.338Z,6.97
2018-05-27T04:14:23.191Z,7.23
2018-05-27T04:16:52.087Z,6.60
2018-05-27T04:19:19.962Z,6.90
2018-05-27T04:21:47.792Z,6.80
2018-05-27T04:24:16.540Z,6.67
2018-05-27T04:26:44.358Z,6.53
2018-05-27T04:29:12.245Z,6.50
2018-05-27T04:31:40.652Z,6.80
2018-05-27T04:34:08.493Z,6.67
2018-05-27T04:36:36.370Z,6.93
2018-05-27T04:39:04.938Z,6.67
2018-05-27T04:41:33.014Z,7.20
2018-05-27T04:44:00.788Z,6.77
2018-05-27T04:46:29.155Z,6.80
2018-05-27T04:48:57.327Z,6.47
2018-05-27T04:51:25.198Z,6.43
2018-05-27T04:53:53.676Z,6.50
2018-05-27T04:56:21.776Z,6.83
2018-05-27T04:58:49.613Z,7.13
2018-05-27T05:01:17.889Z,6.63
2018-05-27T05:03:46.368Z,7.07
2018-05-27T05:06:14.440Z,6.37
2018-05-27T05:08:42.818Z,6.10
2018-05-27T05:11:10.896Z,6.10
2018-05-27T05:13:38.757Z,6.30
2018-05-27T05:16:07.013Z,6.13
2018-05-27T05:18:35.065Z,6.17
2018-05-27T05:21:02.873Z,5.70
2018-05-27T05:23:31.146Z,6.30
2018-05-27T05:25:59.057Z,6.13
2018-05-27T05:28:26.881Z,5.80
2018-05-27T05:30:55.163Z,5.00
2018-05-27T05:33:23.077Z,5.50
2018-05-27T05:35:50.903Z,5.40
2018-05-27T05:38:19.272Z,5.20
2018-05-27T05:40:47.638Z,5.67
2018-05-27T05:43:15.644Z,5.50
2018-05-27T05:45:43.958Z,5.57
2018-05-27T05:48:12.064Z,5.43
2018-05-27T05:50:39.927Z,5.27
2018-05-27T05:53:08.378Z,5.30
2018-05-27T05:55:36.439Z,5.10
2018-05-27T05:58:04.354Z,5.70
2018-05-27T06:00:32.567Z,5.37
2018-05-27T06:03:00.913Z,5.47
2018-05-27T06:05:28.762Z,4.70
2018-05-27T06:07:57.048Z,4.80
2018-05-27T06:10:25.209Z,5.43
2018-05-27T06:12:53.285Z,4.60
2018-05-27T06:15:21.694Z,5.07
2018-05-27T06:17:50.146Z,4.80
2018-05-27T06:20:18.212Z,4.40
2018-05-27T06:22:46.482Z,5.13
2018-05-27T06:25:14.573Z,4.63
2018-05-27T06:27:42.553Z,4.43
2018-05-27T06:30:10.938Z,4.60
2018-05-27T06:32:39.204Z,5.07
2018-05-27T06:35:07.029Z,5.00
2018-05-27T06:37:34.960Z,4.67
2018-05-27T06:40:02.896Z,4.90
2018-05-27T06:42:31.351Z,8.43
2018-05-27T06:44:59.445Z,4.50
2018-05-27T06:47:27.561Z,6.50
2018-05-27T06:49:55.583Z,4.67
2018-05-27T06:52:23.758Z,4.70
2018-05-27T06:54:52.192Z,5.20
2018-05-27T06:57:20.304Z,5.03
2018-05-27T06:59:48.531Z,4.87
2018-05-27T07:02:16.549Z,4.50
2018-05-27T07:04:44.871Z,5.03
2018-05-27T07:07:13.003Z,5.00
2018-05-27T07:09:41.171Z,4.97
2018-05-27T07:12:09.349Z,4.53
2018-05-27T07:14:37.837Z,4.63
2018-05-27T07:17:06.152Z,5.00
2018-05-27T07:19:34.381Z,5.23
2018-05-27T07:22:02.424Z,4.33
2018-05-27T07:24:30.828Z,4.63
2018-05-27T07:26:59.233Z,5.10
2018-05-27T07:29:27.372Z,4.67
2018-05-27T07:31:55.775Z,4.80
2018-05-27T07:34:23.869Z,4.70
2018-05-27T07:36:52.027Z,4.77
2018-05-27T07:39:20.246Z,4.43
2018-05-27T07:41:48.334Z,4.10
2018-05-27T07:44:16.427Z,4.20
2018-05-27T07:46:44.405Z,4.33
2018-05-27T07:49:12.702Z,4.20
2018-05-27T07:51:40.850Z,3.97
2018-05-27T07:54:08.838Z,4.00
2018-05-27T07:56:36.864Z,4.27
2018-05-27T07:59:04.957Z,4.17
2018-05-27T08:01:33.105Z,4.47
2018-05-27T08:04:01.223Z,4.13
2018-05-27T08:06:29.293Z,4.37
2018-05-27T08:08:57.443Z,4.13
2018-05-27T08:11:25.786Z,3.90
2018-05-27T08:13:54.204Z,4.40
2018-05-27T08:16:22.528Z,4.30
2018-05-27T08:18:50.630Z,4.10
2018-05-27T08:21:18.925Z,4.00
2018-05-27T08:23:46.841Z,4.00
2018-05-27T08:26:14.964Z,3.90
2018-05-27T08:28:43.242Z,4.03
2018-05-27T08:31:11.842Z,4.40
2018-05-27T08:33:39.947Z,4.57
2018-05-27T08:36:08.070Z,4.40
2018-05-27T08:38:36.077Z,4.40
2018-05-27T08:41:04.185Z,4.87
2018-05-27T08:43:32.315Z,4.60
2018-05-27T08:46:00.405Z,4.53
2018-05-27T08:48:28.699Z,4.20
2018-05-27T08:50:56.979Z,4.27
2018-05-27T08:53:25.177Z,4.50
2018-05-27T08:55:53.254Z,4.50
2018-05-27T08:58:21.374Z,4.27
2018-05-27T09:00:49.498Z,4.13
2018-05-27T09:03:17.640Z,4.20
2018-05-27T09:05:45.950Z,4.40
2018-05-27T09:08:14.017Z,4.10
2018-05-27T09:10:42.317Z,3.87
2018-05-27T09:13:10.054Z,4.20
2018-05-27T09:15:38.564Z,4.20
2018-05-27T09:18:06.793Z,4.03
2018-05-27T09:20:34.998Z,4.20
2018-05-27T09:23:03.389Z,4.40
2018-05-27T09:25:31.439Z,3.70
2018-05-27T09:27:59.405Z,4.13
2018-05-27T09:30:27.578Z,4.17
2018-05-27T09:32:55.910Z,3.60
2018-05-27T09:35:23.926Z,4.03
2018-05-27T09:37:52.011Z,4.10
2018-05-27T09:40:20.191Z,4.03
2018-05-27T09:42:47.933Z,4.50
2018-05-27T09:45:16.059Z,2.93
2018-05-27T09:47:44.097Z,4.80
2018-05-27T09:50:11.884Z,4.00
2018-05-27T09:52:39.727Z,3.87
2018-05-27T09:55:07.791Z,3.90
2018-05-27T09:57:35.579Z,3.53
2018-05-27T10:00:03.803Z,4.27
2018-05-27T10:02:32.222Z,3.63
2018-05-27T10:05:00.092Z,3.97
2018-05-27T10:07:28.444Z,3.27
2018-05-27T10:09:56.821Z,3.83
2018-05-27T10:12:24.689Z,3.27
2018-05-27T10:14:52.559Z,3.87
2018-05-27T10:17:20.859Z,3.37
2018-05-27T10:19:48.799Z,3.40
2018-05-27T10:22:16.644Z,3.60
2018-05-27T10:24:44.840Z,3.37
2018-05-27T10:27:12.749Z,3.47
2018-05-27T10:29:40.607Z,3.37
2018-05-27T10:32:09.264Z,3.50
2018-05-27T10:34:37.085Z,3.30
2018-05-27T10:37:04.850Z,3.50
2018-05-27T10:39:33.470Z,3.20
2018-05-27T10:42:01.542Z,3.07
2018-05-27T10:44:29.407Z,3.07
2018-05-27T10:46:57.863Z,4.10
2018-05-27T10:49:25.959Z,3.20
2018-05-27T10:51:53.875Z,2.93
2018-05-27T10:54:22.031Z,2.93
2018-05-27T10:56:50.228Z,3.00
2018-05-27T10:59:18.348Z,2.83
2018-05-27T11:01:46.640Z,2.80
2018-05-27T11:04:14.796Z,2.90
2018-05-27T11:06:42.663Z,2.93
2018-05-27T11:09:11.253Z,2.60
2018-05-27T11:11:39.388Z,2.77
2018-05-27T11:14:07.184Z,2.63
2018-05-27T11:16:35.466Z,2.80
2018-05-27T11:19:03.462Z,3.10
2018-05-27T11:21:31.398Z,3.00
2018-05-27T11:23:59.580Z,2.80
2018-05-27T11:26:27.844Z,2.80
2018-05-27T11:28:55.694Z,2.70
2018-05-27T11:31:23.784Z,2.90
2018-05-27T11:33:51.863Z,3.73
2018-05-27T11:36:20.029Z,3.93
2018-05-27T11:38:48.037Z,4.47
2018-05-27T11:41:15.855Z,4.30
2018-05-27T11:43:43.893Z,4.73
2018-05-27T11:46:12.116Z,4.80
2018-05-27T11:48:39.999Z,4.40
2018-05-27T11:51:08.124Z,4.10
2018-05-27T11:53:36.630Z,4.90
2018-05-27T11:56:04.432Z,4.87
2018-05-27T11:58:32.471Z,4.70
2018-05-27T12:01:00.607Z,4.73
2018-05-27T12:03:28.464Z,4.50
2018-05-27T12:05:56.483Z,4.30
2018-05-27T12:08:24.856Z,5.90
2018-05-27T12:10:52.986Z,4.63
2018-05-27T12:13:21.204Z,5.17
2018-05-27T12:15:49.482Z,5.37
2018-05-27T12:18:17.196Z,5.70
2018-05-27T12:20:45.413Z,5.30
2018-05-27T12:23:13.901Z,5.23
2018-05-27T12:25:41.759Z,4.97
2018-05-27T12:28:09.647Z,5.47
2018-05-27T12:30:38.259Z,5.20
2018-05-27T12:33:06.083Z,5.30
2018-05-27T12:35:33.873Z,5.00
2018-05-27T12:38:02.260Z,5.00
2018-05-27T12:40:30.190Z,4.97
2018-05-27T12:42:58.057Z,5.33
2018-05-27T12:45:26.500Z,4.90
2018-05-27T12:47:54.484Z,4.80
2018-05-27T12:50:22.380Z,4.73
2018-05-27T12:52:50.809Z,5.10
2018-05-27T12:55:18.591Z,4.87
2018-05-27T12:57:46.490Z,5.40
2018-05-27T13:00:14.960Z,4.90
2018-05-27T13:02:42.928Z,6.10
2018-05-27T13:05:10.798Z,4.77
2018-05-27T13:07:39.104Z,4.67
2018-05-27T13:10:06.939Z,5.10
2018-05-27T13:12:34.979Z,4.43
2018-05-27T13:15:03.558Z,5.20
2018-05-27T13:17:31.460Z,4.40
2018-05-27T13:20:00.138Z,4.50
2018-05-27T13:22:28.520Z,4.50
2018-05-27T13:24:56.392Z,4.60
2018-05-27T13:27:24.180Z,4.70
2018-05-27T13:29:52.736Z,4.53
2018-05-27T13:32:20.859Z,4.90
2018-05-27T13:34:49.146Z,4.70
2018-05-27T13:37:17.904Z,5.13
2018-05-27T13:39:45.906Z,5.27
2018-05-27T13:42:15.034Z,4.80
2018-05-27T13:44:44.774Z,5.13
2018-05-27T13:47:13.030Z,4.80
2018-05-27T13:49:41.000Z,5.30
2018-05-27T13:52:09.371Z,4.50
2018-05-27T13:54:37.483Z,5.23
2018-05-27T13:57:05.339Z,5.13
2018-05-27T13:59:33.382Z,5.10
2018-05-27T14:02:01.349Z,5.43
2018-05-27T14:04:29.246Z,5.30
2018-05-27T14:06:57.461Z,4.77
2018-05-27T14:09:25.628Z,4.73
2018-05-27T14:11:53.431Z,4.97
2018-05-27T14:14:21.606Z,5.70
2018-05-27T14:16:49.956Z,4.70
2018-05-27T14:19:17.926Z,4.50
2018-05-27T14:21:46.021Z,4.03
2018-05-27T14:24:14.052Z,3.93
2018-05-27T14:26:41.969Z,3.80
2018-05-27T14:29:09.947Z,4.20
2018-05-27T14:31:37.899Z,4.37
2018-05-27T14:34:05.784Z,4.50
2018-05-27T14:36:34.049Z,4.27
2018-05-27T14:39:02.039Z,4.77
2018-05-27T14:41:29.823Z,4.93
2018-05-27T14:43:57.946Z,4.47
2018-05-27T14:46:26.125Z,5.00
2018-05-27T14:48:53.884Z,4.80
2018-05-27T14:51:22.234Z,4.90
2018-05-27T14:53:50.331Z,4.67
2018-05-27T14:56:18.202Z,4.60
2018-05-27T14:58:46.474Z,4.50
2018-05-27T15:01:14.463Z,4.23
2018-05-27T15:03:42.620Z,4.27
2018-05-27T15:06:10.756Z,4.17
2018-05-27T15:08:38.759Z,3.90
2018-05-27T15:11:06.629Z,4.00
2018-05-27T15:13:34.629Z,4.43
2018-05-27T15:16:02.995Z,3.90
2018-05-27T15:18:30.873Z,4.70
2018-05-27T15:20:59.119Z,4.10
2018-05-27T15:23:27.083Z,4.13
2018-05-27T15:25:55.260Z,6.03
2018-05-27T15:28:23.389Z,4.40
2018-05-27T15:30:51.759Z,4.30
2018-05-27T15:33:19.572Z,4.27
2018-05-27T15:35:47.582Z,4.47
2018-05-27T15:38:15.664Z,4.67
2018-05-27T15:40:43.482Z,4.40
2018-05-27T15:43:11.586Z,5.00
2018-05-27T15:45:39.727Z,4.40
2018-05-27T15:48:07.695Z,4.50
2018-05-27T15:50:35.737Z,4.20
2018-05-27T15:53:03.940Z,4.27
2018-05-27T15:55:32.011Z,5.37
2018-05-27T15:58:00.269Z,4.23
2018-05-27T16:00:28.901Z,4.10
2018-05-27T16:02:56.839Z,4.20
2018-05-27T16:05:25.060Z,4.40
2018-05-27T16:07:53.660Z,4.20
2018-05-27T16:10:21.670Z,4.30
2018-05-27T16:12:49.679Z,4.27
2018-05-27T16:15:17.743Z,4.53
2018-05-27T16:17:45.747Z,4.37
2018-05-27T16:20:13.984Z,4.30
2018-05-27T16:22:42.012Z,4.60
2018-05-27T16:25:09.844Z,4.33
2018-05-27T16:27:37.956Z,4.50
2018-05-27T16:30:06.013Z,4.17
2018-05-27T16:32:33.939Z,5.07
2018-05-27T16:35:02.275Z,4.57
2018-05-27T16:37:30.417Z,4.40
2018-05-27T16:39:58.165Z,4.10
2018-05-27T16:42:26.666Z,4.77
2018-05-27T16:44:54.822Z,4.53
2018-05-27T16:47:22.583Z,4.70
2018-05-27T16:49:50.866Z,4.70
2018-05-27T16:52:19.081Z,4.90
2018-05-27T16:54:46.950Z,4.83
2018-05-27T16:57:14.972Z,4.67
2018-05-27T16:59:43.194Z,4.70
2018-05-27T17:02:11.573Z,4.33
2018-05-27T17:04:39.684Z,4.70
2018-05-27T17:07:07.716Z,4.40
2018-05-27T17:09:35.576Z,4.07
2018-05-27T17:12:03.760Z,5.07
2018-05-27T17:14:31.889Z,4.60
2018-05-27T17:17:00.228Z,4.73
2018-05-27T17:19:28.684Z,6.67
2018-05-27T17:21:56.930Z,4.97
2018-05-27T17:24:24.832Z,4.77
2018-05-27T17:26:53.106Z,6.43
2018-05-27T17:29:21.187Z,5.37
2018-05-27T17:31:49.141Z,6.00
2018-05-27T17:34:17.216Z,5.87
2018-05-27T17:36:45.196Z,5.37
2018-05-27T17:39:12.948Z,4.93
2018-05-27T17:41:41.054Z,5.67
2018-05-27T17:44:09.188Z,5.00
2018-05-27T17:46:36.937Z,5.40
2018-05-27T17:49:05.183Z,5.53
2018-05-27T17:51:33.403Z,6.03
2018-05-27T17:54:01.579Z,5.80
2018-05-27T17:56:29.544Z,5.60
2018-05-27T17:58:57.530Z,5.30
2018-05-27T18:01:25.585Z,5.53
2018-05-27T18:03:53.601Z,5.77
2018-05-27T18:06:21.675Z,5.30
2018-05-27T18:08:49.595Z,5.90
2018-05-27T18:11:17.716Z,6.10
2018-05-27T18:13:45.940Z,5.17
2018-05-27T18:16:13.724Z,5.33
2018-05-27T18:18:41.971Z,4.73
2018-05-27T18:21:11.350Z,4.87
2018-05-27T18:23:39.151Z,5.33
2018-05-27T18:26:07.248Z,4.63
2018-05-27T18:28:35.296Z,5.07
2018-05-27T18:31:03.074Z,5.00
2018-05-27T18:33:31.306Z,4.93
2018-05-27T18:35:59.537Z,4.37
2018-05-27T18:38:27.473Z,4.80
2018-05-27T18:40:55.853Z,4.23
2018-05-27T18:43:24.024Z,4.20
2018-05-27T18:45:51.890Z,5.23
2018-05-27T18:48:20.165Z,4.70
2018-05-27T18:50:48.253Z,4.63
2018-05-27T18:53:16.105Z,5.17
2018-05-27T18:55:44.379Z,4.73
2018-05-27T18:58:12.451Z,4.60
2018-05-27T19:00:40.320Z,5.30
2018-05-27T19:03:08.384Z,5.73
2018-05-27T19:05:36.635Z,5.07
2018-05-27T19:08:04.743Z,5.30
2018-05-27T19:10:32.913Z,5.60
2018-05-27T19:13:01.199Z,5.53
2018-05-27T19:15:29.061Z,5.27
2018-05-27T19:17:57.310Z,5.23
2018-05-27T19:20:25.446Z,4.60
2018-05-27T19:22:53.775Z,5.07
2018-05-27T19:25:22.187Z,4.27
2018-05-27T19:27:50.423Z,4.77
2018-05-27T19:30:18.393Z,4.37
2018-05-27T19:32:46.583Z,5.13
2018-05-27T19:35:14.730Z,5.07
2018-05-27T19:37:42.719Z,5.40
2018-05-27T19:40:10.938Z,5.13
2018-05-27T19:42:39.375Z,4.40
2018-05-27T19:45:07.585Z,5.50
2018-05-27T19:47:35.692Z,4.73
2018-05-27T19:50:03.895Z,5.53
2018-05-27T19:52:31.999Z,4.87
2018-05-27T19:55:00.096Z,5.77
2018-05-27T19:57:27.897Z,5.03
2018-05-27T19:59:56.364Z,5.30
2018-05-27T20:02:24.897Z,5.00
2018-05-27T20:04:52.732Z,5.03
2018-05-27T20:07:20.730Z,5.33
2018-05-27T20:09:49.014Z,5.33
2018-05-27T20:12:17.862Z,5.47
2018-05-27T20:14:45.944Z,4.83
2018-05-27T20:17:13.984Z,4.30
2018-05-27T20:19:41.847Z,10.83
2018-05-27T20:22:10.004Z,5.50
2018-05-27T20:24:39.106Z,3.00
2018-05-27T20:27:07.115Z,2.63
2018-05-27T20:29:35.207Z,2.30
2018-05-27T20:32:03.617Z,2.00
2018-05-27T20:34:31.419Z,2.20
2018-05-27T20:36:59.397Z,2.00
2018-05-27T20:39:27.879Z,1.63
2018-05-27T20:41:55.705Z,1.70
2018-05-27T20:44:23.608Z,1.50
2018-05-27T20:46:52.227Z,1.60
2018-05-27T20:49:20.063Z,1.40
2018-05-27T20:51:47.920Z,1.27
2018-05-27T20:54:16.622Z,1.43
2018-05-27T20:56:45.149Z,5.30
2018-05-27T20:59:13.234Z,2.20
2018-05-27T21:01:41.551Z,4.27
2018-05-27T21:04:09.457Z,1.10
2018-05-27T21:06:37.363Z,1.30
2018-05-27T21:09:06.185Z,1.40
2018-05-27T21:11:34.234Z,1.13
2018-05-27T21:14:02.100Z,1.47
2018-05-27T21:16:30.952Z,1.20
2018-05-27T21:18:59.065Z,1.30
2018-05-27T21:21:27.025Z,1.30
2018-05-27T21:23:55.078Z,1.40
2018-05-27T21:26:23.434Z,1.30
2018-05-27T21:28:51.349Z,1.73
2018-05-27T21:31:19.478Z,1.43
2018-05-27T21:33:47.869Z,1.43
2018-05-27T21:36:15.723Z,1.30
2018-05-27T21:38:43.944Z,1.30
2018-05-27T21:41:14.059Z,1.40
2018-05-27T21:43:42.028Z,1.50
2018-05-27T21:46:10.133Z,1.30
2018-05-27T21:48:38.195Z,1.10
2018-05-27T21:51:06.142Z,1.57
2018-05-27T21:53:34.205Z,1.60
2018-05-27T21:56:02.432Z,1.50
2018-05-27T21:58:30.190Z,1.50
2018-05-27T22:00:58.224Z,1.40
2018-05-27T22:03:26.699Z,1.50
2018-05-27T22:05:54.676Z,1.30
2018-05-27T22:08:23.123Z,1.10
2018-05-27T22:10:51.249Z,1.40
2018-05-27T22:13:19.412Z,1.20
2018-05-27T22:15:47.531Z,1.30
2018-05-27T22:18:15.534Z,1.37
2018-05-27T22:20:43.707Z,1.10
2018-05-27T22:23:11.882Z,1.30
2018-05-27T22:25:39.959Z,1.30
2018-05-27T22:28:08.023Z,1.67
2018-05-27T22:30:36.155Z,1.40
2018-05-27T22:33:04.295Z,1.20
2018-05-27T22:35:32.544Z,1.10
2018-05-27T22:38:00.721Z,1.37
2018-05-27T22:40:28.687Z,1.30
2018-05-27T22:42:56.660Z,1.17
2018-05-27T22:45:25.139Z,1.20
2018-05-27T22:47:53.074Z,1.50
2018-05-27T22:50:21.071Z,1.40
2018-05-27T22:52:49.044Z,1.30
2018-05-27T22:55:16.918Z,1.40
2018-05-27T22:57:45.014Z,1.30
2018-05-27T23:00:13.052Z,1.07
2018-05-27T23:02:41.025Z,1.20
2018-05-27T23:05:09.097Z,1.60
2018-05-27T23:07:37.270Z,1.30
2018-05-27T23:10:05.084Z,1.30
2018-05-27T23:12:33.163Z,1.30
2018-05-27T23:15:01.201Z,1.17
2018-05-27T23:17:29.145Z,1.50
2018-05-27T23:19:57.320Z,1.40
2018-05-27T23:22:25.526Z,1.30
2018-05-27T23:24:53.506Z,1.20
2018-05-27T23:27:21.406Z,1.13
2018-05-27T23:29:50.360Z,1.30
2018-05-27T23:32:18.188Z,1.40
2018-05-27T23:34:46.054Z,1.30
2018-05-27T23:37:14.360Z,1.27
2018-05-27T23:39:42.194Z,1.40
2018-05-27T23:42:10.114Z,1.50
2018-05-27T23:44:38.614Z,1.30
2018-05-27T23:47:06.409Z,1.40
2018-05-27T23:49:34.481Z,1.30
2018-05-27T23:52:02.861Z,1.07
2018-05-27T23:54:30.957Z,1.20
2018-05-27T23:56:58.934Z,1.23
2018-05-27T23:59:27.163Z,1.20
